Time;durP1;ratioP1;P1;durP2;ratioP2;P2;SDS_P1;SDS_P2;PMS_P1;PMS_P2;Temp;Humidity;BMP_temperature;BMP_pressure;BME280_temperature;BME280_humidity;BME280_pressure;Samples;Min_cycle;Max_cycle;Signal;HPM_P1;HPM_P2
2021/03/08 00:00:14;;;;;;;25.90;22.15;;;11.10;97.50;11.30;99682.00;;;;345886;28;88208;-87
2021/03/08 00:00:35;;;;;;;25.90;22.48;;;11.10;97.50;11.40;99680.00;;;;345797;28;87141;-87
2021/03/08 00:00:47;;;;;;;24.38;21.80;;;11.10;97.60;11.50;99679.00;;;;343136;28;83307;-86
2021/03/08 00:00:58;;;;;;;23.13;20.67;;;11.20;97.70;11.50;99679.00;;;;344692;28;84940;-87
2021/03/08 00:01:10;;;;;;;24.00;20.92;;;11.20;97.70;11.40;99677.00;;;;347509;28;83694;-87
2021/03/08 00:01:22;;;;;;;25.52;21.38;;;11.10;97.60;11.50;99677.00;;;;343207;28;86350;-87
2021/03/08 00:01:34;;;;;;;24.80;21.75;;;11.20;97.60;11.40;99683.00;;;;342883;28;87281;-87
2021/03/08 00:01:46;;;;;;;24.73;22.10;;;11.20;97.60;11.50;99674.00;;;;347323;28;86970;-87
2021/03/08 00:01:57;;;;;;;24.95;22.30;;;11.20;97.60;11.40;99684.00;;;;341742;28;85312;-89
2021/03/08 00:02:09;;;;;;;24.80;22.08;;;11.20;97.60;11.30;99673.00;;;;344575;28;87414;-87
2021/03/08 00:02:21;;;;;;;25.25;21.40;;;11.20;97.50;11.20;99681.00;;;;344405;28;87365;-87
2021/03/08 00:02:33;;;;;;;25.27;21.38;;;11.20;97.50;11.30;99676.00;;;;341818;28;87559;-87
2021/03/08 00:02:45;;;;;;;25.77;22.10;;;11.20;97.50;11.30;99685.00;;;;344664;28;87328;-88
2021/03/08 00:02:58;;;;;;;25.30;22.50;;;11.20;97.50;11.20;99683.00;;;;345991;28;88115;-88
2021/03/08 00:03:10;;;;;;;25.80;23.00;;;11.20;97.50;11.10;99677.00;;;;344327;28;86250;-87
2021/03/08 00:03:23;;;;;;;25.42;22.63;;;11.20;97.50;11.00;99687.00;;;;341774;28;87534;-87
2021/03/08 00:03:35;;;;;;;24.58;21.65;;;11.20;97.60;11.10;99684.00;;;;343155;28;87283;-87
2021/03/08 00:03:47;;;;;;;25.40;22.05;;;11.10;97.60;11.30;99684.00;;;;344557;28;87523;-89
2021/03/08 00:03:59;;;;;;;26.02;21.80;;;11.20;97.70;11.30;99681.00;;;;344479;28;86998;-90
2021/03/08 00:04:11;;;;;;;25.27;21.23;;;11.20;97.70;11.20;99687.00;;;;344788;28;85697;-87
2021/03/08 00:04:23;;;;;;;27.30;22.65;;;11.20;97.70;11.20;99687.00;;;;344474;28;87632;-88
2021/03/08 00:04:34;;;;;;;27.00;23.05;;;11.20;97.90;11.10;99681.00;;;;345686;28;88074;-88
2021/03/08 00:04:46;;;;;;;25.65;22.60;;;11.20;97.70;11.10;99683.00;;;;343356;28;83353;-87
2021/03/08 00:05:00;;;;;;;26.65;22.80;;;11.20;97.70;11.00;99680.00;;;;343319;28;85886;-90
2021/03/08 00:05:13;;;;;;;27.98;23.60;;;11.10;97.60;10.90;99684.00;;;;344493;28;83994;-88
2021/03/08 00:05:24;;;;;;;26.40;23.50;;;11.10;97.60;10.80;99678.00;;;;345842;28;84797;-87
2021/03/08 00:05:36;;;;;;;26.75;23.88;;;11.10;97.50;10.80;99681.00;;;;345024;28;87143;-87
2021/03/08 00:05:48;;;;;;;26.85;24.05;;;11.10;97.60;10.80;99692.00;;;;345953;28;87544;-87
2021/03/08 00:06:01;;;;;;;26.23;23.45;;;11.10;97.60;10.80;99684.00;;;;344090;28;87447;-87
2021/03/08 00:06:12;;;;;;;26.85;23.92;;;11.10;97.70;10.70;99689.00;;;;345796;28;83855;-87
2021/03/08 00:06:24;;;;;;;28.77;24.42;;;11.10;97.70;10.60;99680.00;;;;344141;28;85577;-87
2021/03/08 00:06:35;;;;;;;29.60;25.08;;;11.10;97.70;10.70;99681.00;;;;345102;28;87594;-88
2021/03/08 00:06:47;;;;;;;29.20;24.92;;;11.00;97.70;10.80;99681.00;;;;347124;28;85133;-89
2021/03/08 00:06:58;;;;;;;28.23;24.42;;;11.00;97.80;10.90;99684.00;;;;344195;28;87793;-87
2021/03/08 00:07:10;;;;;;;29.42;23.60;;;11.00;97.90;10.80;99679.00;;;;342789;28;84823;-88
2021/03/08 00:07:21;;;;;;;30.73;24.45;;;11.00;97.80;10.80;99680.00;;;;342994;28;85258;-88
2021/03/08 00:07:33;;;;;;;31.33;24.45;;;11.00;97.80;10.80;99685.00;;;;345560;28;86262;-88
2021/03/08 00:07:45;;;;;;;30.17;24.13;;;11.00;97.90;10.70;99690.00;;;;345441;28;85991;-87
2021/03/08 00:07:56;;;;;;;29.63;24.30;;;11.00;97.90;10.70;99679.00;;;;343972;28;87262;-88
2021/03/08 00:08:08;;;;;;;28.95;22.88;;;11.00;97.90;10.60;99685.00;;;;342968;28;85331;-88
2021/03/08 00:08:20;;;;;;;30.92;23.77;;;11.00;97.90;10.70;99687.00;;;;343001;28;86261;-89
2021/03/08 00:08:31;;;;;;;31.08;23.50;;;10.90;98.00;10.60;99680.00;;;;343144;28;85764;-88
2021/03/08 00:08:42;;;;;;;28.63;23.10;;;10.90;98.10;10.80;99681.00;;;;342246;28;87142;-87
2021/03/08 00:08:54;;;;;;;26.17;22.50;;;10.90;98.10;10.90;99683.00;;;;345604;28;86275;-86
2021/03/08 00:09:05;;;;;;;24.55;21.95;;;10.90;98.20;10.80;99681.00;;;;343321;28;88014;-87
2021/03/08 00:09:17;;;;;;;24.55;21.85;;;10.90;98.20;10.90;99688.00;;;;341679;28;82951;-88
2021/03/08 00:09:29;;;;;;;25.50;22.15;;;10.90;98.20;10.80;99680.00;;;;344251;28;87380;-89
2021/03/08 00:09:41;;;;;;;26.08;22.85;;;10.90;98.20;10.90;99682.00;;;;346288;28;86766;-87
2021/03/08 00:09:53;;;;;;;25.65;22.77;;;10.90;98.20;10.80;99686.00;;;;342809;28;86208;-86
2021/03/08 00:10:05;;;;;;;26.45;23.58;;;10.90;98.20;10.80;99680.00;;;;342840;28;88537;-87
2021/03/08 00:10:18;;;;;;;26.92;24.08;;;10.90;98.20;10.80;99674.00;;;;342799;28;86996;-87
2021/03/08 00:10:29;;;;;;;27.08;24.27;;;10.90;98.20;10.70;99676.00;;;;345756;28;87935;-86
2021/03/08 00:10:41;;;;;;;27.58;24.15;;;10.90;98.10;10.60;99683.00;;;;345806;28;84748;-87
2021/03/08 00:10:52;;;;;;;27.95;23.98;;;10.90;98.10;10.60;99677.00;;;;345846;28;88380;-87
2021/03/08 00:11:05;;;;;;;28.48;24.45;;;10.90;98.10;10.70;99677.00;;;;343119;28;87410;-89
2021/03/08 00:11:16;;;;;;;29.00;25.35;;;10.90;98.20;10.60;99680.00;;;;344747;28;83999;-88
2021/03/08 00:11:27;;;;;;;29.55;24.85;;;10.90;98.20;10.70;99684.00;;;;344649;28;86563;-87
2021/03/08 00:11:39;;;;;;;28.17;23.67;;;10.80;98.20;10.70;99679.00;;;;346727;28;87631;-88
2021/03/08 00:11:50;;;;;;;27.50;23.63;;;10.80;98.30;10.70;99683.00;;;;346911;28;87252;-87
2021/03/08 00:12:02;;;;;;;28.98;25.05;;;10.80;98.30;10.70;99670.00;;;;345716;28;85619;-89
2021/03/08 00:12:14;;;;;;;29.13;24.70;;;10.80;98.30;10.70;99673.00;;;;345796;28;84271;-87
2021/03/08 00:12:26;;;;;;;27.55;24.35;;;10.80;98.30;10.70;99682.00;;;;345497;28;85670;-88
2021/03/08 00:12:38;;;;;;;28.67;24.48;;;10.80;98.30;10.60;99675.00;;;;345735;28;87924;-88
2021/03/08 00:12:49;;;;;;;29.02;24.83;;;10.80;98.40;10.70;99676.00;;;;342906;28;85525;-87
2021/03/08 00:13:01;;;;;;;28.75;24.88;;;10.80;98.60;10.70;99683.00;;;;342862;28;86485;-87
2021/03/08 00:13:12;;;;;;;27.63;24.67;;;10.80;98.40;10.80;99685.00;;;;344196;28;88190;-87
2021/03/08 00:13:24;;;;;;;28.55;25.52;;;10.80;98.50;10.70;99685.00;;;;342889;28;85289;-87
2021/03/08 00:13:35;;;;;;;28.70;24.92;;;10.80;98.40;10.70;99673.00;;;;341511;28;87534;-87
2021/03/08 00:13:47;;;;;;;29.58;24.92;;;10.80;98.40;10.70;99681.00;;;;342854;28;84860;-88
2021/03/08 00:13:58;;;;;;;30.35;24.52;;;10.80;98.40;10.70;99682.00;;;;342936;28;87706;-88
2021/03/08 00:14:10;;;;;;;30.42;24.52;;;10.80;98.40;10.60;99682.00;;;;345612;28;87209;-87
2021/03/08 00:14:21;;;;;;;30.67;24.58;;;10.80;98.40;10.50;99676.00;;;;344384;28;84307;-87
2021/03/08 00:14:32;;;;;;;32.17;26.10;;;10.70;98.40;10.50;99677.00;;;;342706;28;87184;-87
2021/03/08 00:14:44;;;;;;;30.70;26.02;;;10.70;98.40;10.40;99675.00;;;;344058;28;88187;-87
2021/03/08 00:14:56;;;;;;;30.08;25.60;;;10.70;98.50;10.50;99681.00;;;;345720;28;87038;-86
2021/03/08 00:15:11;;;;;;;28.60;25.20;;;10.70;98.50;10.70;99682.00;;;;344708;28;87751;-87
2021/03/08 00:15:23;;;;;;;27.20;24.33;;;10.70;98.60;10.80;99680.00;;;;343074;28;85666;-86
2021/03/08 00:15:35;;;;;;;26.00;23.23;;;10.70;98.60;10.90;99675.00;;;;343162;28;88974;-86
2021/03/08 00:15:47;;;;;;;25.77;23.00;;;10.80;98.60;10.90;99676.00;;;;344221;28;84822;-90
2021/03/08 00:15:58;;;;;;;26.75;23.67;;;10.80;98.60;10.90;99680.00;;;;345730;28;88149;-87
2021/03/08 00:16:10;;;;;;;26.45;23.63;;;10.80;98.60;11.00;99682.00;;;;344679;28;87613;-86
2021/03/08 00:16:22;;;;;;;27.40;23.65;;;10.80;98.60;10.70;99679.00;;;;345674;28;87483;-87
2021/03/08 00:16:33;;;;;;;27.65;24.02;;;10.80;98.50;10.70;99678.00;;;;342771;28;87302;-87
2021/03/08 00:16:45;;;;;;;29.40;24.17;;;10.80;98.40;10.70;99678.00;;;;343017;28;87570;-87
2021/03/08 00:16:57;;;;;;;27.27;23.08;;;10.80;98.40;10.80;99680.00;;;;342971;28;85991;-86
2021/03/08 00:17:09;;;;;;;26.42;22.98;;;10.80;98.40;10.90;99677.00;;;;343957;28;86662;-87
2021/03/08 00:17:20;;;;;;;25.83;22.75;;;10.80;98.50;10.80;99674.00;;;;344301;28;87673;-87
2021/03/08 00:17:32;;;;;;;28.58;23.40;;;10.80;98.50;10.70;99681.00;;;;345153;28;87473;-87
2021/03/08 00:17:49;;;;;;;29.70;23.27;;;10.80;98.50;10.80;99671.00;;;;345851;28;86035;-87
2021/03/08 00:18:01;;;;;;;25.95;22.77;;;10.80;98.50;10.70;99681.00;;;;343985;28;88204;-87
2021/03/08 00:18:12;;;;;;;26.15;23.38;;;10.80;98.50;10.60;99683.00;;;;345629;28;87234;-87
2021/03/08 00:18:25;;;;;;;26.55;23.83;;;10.70;98.40;10.70;99681.00;;;;341976;28;88371;-87
2021/03/08 00:18:37;;;;;;;27.33;24.25;;;10.80;98.50;10.90;99679.00;;;;346331;27;86188;-87
2021/03/08 00:18:48;;;;;;;28.10;24.48;;;10.80;98.50;10.90;99675.00;;;;345615;28;88784;-87
2021/03/08 00:19:00;;;;;;;28.38;24.10;;;10.80;98.60;10.80;99678.00;;;;347078;28;86375;-87
2021/03/08 00:19:11;;;;;;;27.00;23.63;;;10.80;98.50;10.70;99678.00;;;;344247;28;87447;-87
2021/03/08 00:19:22;;;;;;;25.95;23.15;;;10.80;98.40;10.50;99674.00;;;;343136;28;84074;-86
2021/03/08 00:19:34;;;;;;;26.80;23.73;;;10.80;98.40;10.50;99684.00;;;;344441;28;84771;-87
2021/03/08 00:19:45;;;;;;;27.27;24.38;;;10.80;98.40;10.60;99679.00;;;;345921;28;86942;-87
2021/03/08 00:19:57;;;;;;;27.10;24.20;;;10.80;98.40;10.80;99678.00;;;;345536;28;86857;-89
2021/03/08 00:20:15;;;;;;;26.80;24.00;;;10.80;98.50;10.60;99674.00;;;;347060;28;87677;-87
2021/03/08 00:20:27;;;;;;;26.48;23.70;;;10.80;98.50;10.50;99671.00;;;;347000;28;87928;-87
2021/03/08 00:20:38;;;;;;;26.48;23.58;;;10.80;98.40;10.40;99673.00;;;;345207;28;87720;-87
2021/03/08 00:20:50;;;;;;;26.70;23.70;;;10.80;98.40;10.60;99680.00;;;;346248;28;87864;-87
2021/03/08 00:21:02;;;;;;;27.58;23.92;;;10.80;98.50;10.70;99675.00;;;;345500;28;87151;-87
2021/03/08 00:21:13;;;;;;;27.92;23.92;;;10.80;98.50;10.70;99680.00;;;;342735;28;87779;-88
2021/03/08 00:21:25;;;;;;;28.08;24.33;;;10.70;98.50;10.70;99684.00;;;;344249;28;87330;-87
2021/03/08 00:21:36;;;;;;;27.58;24.48;;;10.80;98.50;10.80;99682.00;;;;344306;28;84140;-87
2021/03/08 00:21:48;;;;;;;27.45;24.33;;;10.80;98.50;10.70;99678.00;;;;345615;28;87762;-88
2021/03/08 00:22:00;;;;;;;27.52;23.13;;;10.80;98.50;10.90;99675.00;;;;343929;28;87035;-88
2021/03/08 00:22:11;;;;;;;26.58;23.02;;;10.80;98.50;10.70;99683.00;;;;341618;28;85013;-88
2021/03/08 00:22:23;;;;;;;27.88;23.88;;;10.80;98.50;10.60;99682.00;;;;344297;28;86909;-87
2021/03/08 00:22:35;;;;;;;27.50;24.00;;;10.80;98.50;10.50;99676.00;;;;342722;28;87580;-88
2021/03/08 00:22:46;;;;;;;27.80;23.63;;;10.70;98.40;10.40;99683.00;;;;344280;28;88801;-87
2021/03/08 00:22:58;;;;;;;27.45;23.45;;;10.70;98.40;10.30;99680.00;;;;342770;28;87165;-87
2021/03/08 00:23:09;;;;;;;28.10;24.13;;;10.70;98.40;10.30;99677.00;;;;345740;28;84338;-88
2021/03/08 00:23:21;;;;;;;28.10;24.58;;;10.70;98.40;10.30;99678.00;;;;345687;28;84861;-88
2021/03/08 00:23:34;;;;;;;27.90;24.92;;;10.70;98.50;10.50;99681.00;;;;343188;28;87734;-88
2021/03/08 00:23:45;;;;;;;26.85;24.00;;;10.70;98.50;10.60;99686.00;;;;345106;28;86284;-88
2021/03/08 00:23:59;;;;;;;26.02;23.25;;;10.70;98.60;10.60;99679.00;;;;344272;28;85755;-88
2021/03/08 00:24:12;;;;;;;25.95;23.20;;;10.70;98.60;10.60;99673.00;;;;343351;28;84410;-87
2021/03/08 00:24:24;;;;;;;25.90;23.20;;;10.70;98.50;10.70;99687.00;;;;346105;28;84661;-87
2021/03/08 00:24:36;;;;;;;26.73;23.70;;;10.70;98.50;10.70;99682.00;;;;346150;28;87462;-87
2021/03/08 00:24:47;;;;;;;27.10;24.05;;;10.70;98.50;10.80;99680.00;;;;346176;28;88415;-88
2021/03/08 00:24:59;;;;;;;28.08;24.50;;;10.70;98.60;10.80;99681.00;;;;343186;28;83999;-88
2021/03/08 00:25:16;;;;;;;26.35;23.17;;;10.70;98.50;10.70;99678.00;;;;344670;28;85172;-87
2021/03/08 00:25:30;;;;;;;25.15;21.95;;;10.70;98.60;10.70;99678.00;;;;344881;28;84830;-87
2021/03/08 00:25:41;;;;;;;25.23;22.48;;;10.70;98.40;10.70;99680.00;;;;344485;28;85690;-87
2021/03/08 00:25:53;;;;;;;26.75;23.17;;;10.80;98.40;10.60;99683.00;;;;342875;28;86175;-90
2021/03/08 00:26:18;;;;;;;28.45;23.60;;;10.70;98.40;10.70;99687.00;;;;342505;28;86145;-88
2021/03/08 00:26:30;;;;;;;27.27;23.35;;;10.70;98.40;10.60;99684.00;;;;345839;28;87334;-88
2021/03/08 00:26:57;;;;;;;26.75;23.20;;;10.70;98.40;10.60;99683.00;;;;345113;28;86579;-88
2021/03/08 00:27:08;;;;;;;27.95;24.15;;;10.70;98.50;10.50;99672.00;;;;342913;28;84780;-87
2021/03/08 00:27:23;;;;;;;27.45;23.98;;;10.70;98.40;10.40;99678.00;;;;343095;28;87964;-87
2021/03/08 00:27:34;;;;;;;27.90;24.25;;;10.70;98.40;10.40;99682.00;;;;342538;28;87304;-87
2021/03/08 00:27:47;;;;;;;28.77;24.60;;;10.60;98.40;10.40;99677.00;;;;343250;28;85744;-87
2021/03/08 00:27:59;;;;;;;27.60;24.08;;;10.60;98.50;10.40;99677.00;;;;344512;28;85148;-88
2021/03/08 00:28:11;;;;;;;26.83;23.73;;;10.70;98.50;10.40;99673.00;;;;344611;28;85350;-86
2021/03/08 00:28:22;;;;;;;26.95;24.00;;;10.70;98.60;10.60;99673.00;;;;347409;28;84978;-87
2021/03/08 00:28:34;;;;;;;26.13;23.27;;;10.70;98.60;10.60;99676.00;;;;346084;28;87595;-87
2021/03/08 00:28:45;;;;;;;27.50;23.48;;;10.70;98.60;10.50;99671.00;;;;342954;28;87898;-87
2021/03/08 00:28:58;;;;;;;27.23;23.15;;;10.60;98.50;10.60;99674.00;;;;342801;28;88759;-88
2021/03/08 00:29:10;;;;;;;27.13;23.05;;;10.70;98.50;10.60;99672.00;;;;344167;28;83786;-89
2021/03/08 00:29:21;;;;;;;26.27;22.63;;;10.70;98.50;10.50;99668.00;;;;345504;28;87979;-87
2021/03/08 00:29:33;;;;;;;26.48;22.30;;;10.60;98.50;10.50;99677.00;;;;343196;28;85937;-88
2021/03/08 00:29:44;;;;;;;26.27;22.15;;;10.70;98.50;10.50;99664.00;;;;344505;28;84620;-86
2021/03/08 00:29:58;;;;;;;27.35;22.75;;;10.60;98.50;10.50;99671.00;;;;344575;28;84988;-86
2021/03/08 00:30:23;;;;;;;28.15;23.90;;;10.60;98.60;10.60;99678.00;;;;342321;28;86398;-87
2021/03/08 00:30:35;;;;;;;25.85;22.10;;;10.60;98.60;10.60;99672.00;;;;346880;28;87291;-87
2021/03/08 00:30:46;;;;;;;23.73;21.10;;;10.60;98.60;10.60;99663.00;;;;345731;28;85675;-87
2021/03/08 00:30:58;;;;;;;23.52;20.77;;;10.60;98.60;10.60;99671.00;;;;342859;28;87673;-87
2021/03/08 00:31:09;;;;;;;23.73;20.77;;;10.60;98.90;10.70;99667.00;;;;342866;28;85304;-88
2021/03/08 00:31:21;;;;;;;27.45;20.70;;;10.60;98.70;10.60;99680.00;;;;342734;28;86101;-86
2021/03/08 00:31:33;;;;;;;25.52;20.83;;;10.60;98.70;10.60;99664.00;;;;344121;28;86869;-87
2021/03/08 00:31:44;;;;;;;26.17;22.00;;;10.70;98.60;10.60;99672.00;;;;342872;28;86903;-87
2021/03/08 00:31:56;;;;;;;24.45;21.85;;;10.60;98.60;10.70;99670.00;;;;344047;28;86796;-87
2021/03/08 00:32:10;;;;;;;25.42;22.02;;;10.60;98.60;10.80;99673.00;;;;341598;28;87027;-87
2021/03/08 00:32:22;;;;;;;24.33;20.95;;;10.70;98.60;10.80;99671.00;;;;344259;28;88744;-86
2021/03/08 00:32:34;;;;;;;24.85;20.77;;;10.70;98.70;10.90;99674.00;;;;346540;28;86432;-86
2021/03/08 00:32:46;;;;;;;23.50;20.63;;;10.70;98.90;10.90;99672.00;;;;344091;28;87607;-88
2021/03/08 00:32:58;;;;;;;25.98;21.58;;;10.70;98.60;10.80;99675.00;;;;345653;28;87077;-87
2021/03/08 00:33:10;;;;;;;30.48;22.77;;;10.70;98.50;10.80;99672.00;;;;344178;28;88156;-88
2021/03/08 00:33:22;;;;;;;29.95;23.27;;;10.70;98.50;10.80;99671.00;;;;342817;28;87465;-87
2021/03/08 00:33:34;;;;;;;28.52;23.83;;;10.70;98.70;10.90;99674.00;;;;344349;28;84513;-87
2021/03/08 00:33:46;;;;;;;28.15;23.50;;;10.70;98.50;10.90;99664.00;;;;342828;28;87905;-87
2021/03/08 00:33:57;;;;;;;28.52;23.58;;;10.70;98.50;10.90;99676.00;;;;341532;28;85540;-88
2021/03/08 00:34:08;;;;;;;29.65;23.55;;;10.80;98.50;10.90;99663.00;;;;342846;28;86430;-87
2021/03/08 00:34:20;;;;;;;29.42;23.15;;;10.80;98.40;10.90;99670.00;;;;342814;28;86918;-87
2021/03/08 00:34:32;;;;;;;28.73;22.63;;;10.80;98.40;10.90;99673.00;;;;342686;28;87281;-87
2021/03/08 00:34:43;;;;;;;25.58;22.23;;;10.80;98.40;10.80;99677.00;;;;344222;28;87838;-87
2021/03/08 00:34:54;;;;;;;24.95;21.75;;;10.80;98.30;10.90;99669.00;;;;343029;28;84852;-87
2021/03/08 00:35:07;;;;;;;26.80;20.92;;;10.80;98.30;10.90;99673.00;;;;342858;28;87786;-86
2021/03/08 00:35:19;;;;;;;26.65;21.50;;;10.80;98.30;10.90;99674.00;;;;342871;28;85173;-87
2021/03/08 00:35:30;;;;;;;27.48;22.08;;;10.80;98.20;10.80;99670.00;;;;341502;28;84610;-87
2021/03/08 00:35:41;;;;;;;24.27;21.67;;;10.80;98.20;10.70;99677.00;;;;345813;28;84018;-87
2021/03/08 00:35:53;;;;;;;26.83;21.25;;;10.80;98.20;10.70;99674.00;;;;343864;28;87218;-87
2021/03/08 00:36:19;;;;;;;27.08;21.40;;;10.80;98.20;10.70;99674.00;;;;342746;28;85848;-87
2021/03/08 00:36:30;;;;;;;25.48;21.10;;;10.80;98.20;10.80;99674.00;;;;341544;28;86832;-87
2021/03/08 00:36:41;;;;;;;25.95;21.58;;;10.80;98.20;10.90;99679.00;;;;345140;28;85936;-86
2021/03/08 00:36:53;;;;;;;24.33;21.30;;;10.80;98.20;10.90;99674.00;;;;344403;28;87523;-87
2021/03/08 00:37:05;;;;;;;25.20;21.60;;;10.80;98.30;11.00;99675.00;;;;342830;28;87317;-87
2021/03/08 00:37:17;;;;;;;25.02;21.35;;;10.80;98.40;11.00;99682.00;;;;344295;28;85405;-87
2021/03/08 00:37:31;;;;;;;25.17;21.38;;;10.90;98.40;11.10;99677.00;;;;345600;28;87139;-87
2021/03/08 00:37:43;;;;;;;25.00;20.92;;;10.90;98.50;11.10;99679.00;;;;343007;28;85402;-87
2021/03/08 00:37:54;;;;;;;23.60;20.38;;;10.90;98.40;11.10;99679.00;;;;342637;28;87741;-87
2021/03/08 00:38:06;;;;;;;23.67;20.73;;;10.90;98.40;11.10;99678.00;;;;342773;28;88500;-87
2021/03/08 00:38:17;;;;;;;23.58;20.63;;;10.90;98.30;11.20;99670.00;;;;345358;28;86570;-87
2021/03/08 00:38:29;;;;;;;25.83;21.77;;;10.90;98.30;11.20;99673.00;;;;344235;28;85293;-88
2021/03/08 00:38:40;;;;;;;24.67;21.67;;;11.00;98.30;11.20;99672.00;;;;345038;28;86406;-87
2021/03/08 00:38:51;;;;;;;25.52;22.25;;;11.00;98.30;11.20;99682.00;;;;341623;28;84296;-87
2021/03/08 00:39:05;;;;;;;25.45;21.73;;;11.00;98.20;11.20;99674.00;;;;343012;28;86262;-87
2021/03/08 00:39:32;;;;;;;23.38;20.30;;;11.00;98.20;11.00;99678.00;;;;342743;28;84327;-87
2021/03/08 00:39:45;;;;;;;25.42;20.88;;;11.00;97.90;11.10;99677.00;;;;345715;28;84094;-87
2021/03/08 00:40:05;;;;;;;24.63;21.27;;;11.00;97.90;11.20;99680.00;;;;344231;28;86944;-88
2021/03/08 00:40:19;;;;;;;25.17;21.60;;;11.00;98.00;11.20;99678.00;;;;343027;28;85316;-87
2021/03/08 00:40:31;;;;;;;26.02;21.70;;;11.00;98.10;11.20;99672.00;;;;344130;28;85768;-86
2021/03/08 00:40:42;;;;;;;26.77;22.52;;;11.10;98.10;11.20;99669.00;;;;342838;28;87623;-87
2021/03/08 00:40:54;;;;;;;27.40;23.30;;;11.00;98.10;11.20;99676.00;;;;345910;28;84268;-87
2021/03/08 00:41:06;;;;;;;26.38;23.33;;;11.10;98.00;11.20;99679.00;;;;345747;28;84458;-87
2021/03/08 00:41:17;;;;;;;26.23;23.33;;;11.10;98.00;11.20;99671.00;;;;341582;28;84197;-88
2021/03/08 00:41:30;;;;;;;25.86;22.64;;;11.10;98.00;11.30;99669.00;;;;341532;28;84265;-88
2021/03/08 00:41:41;;;;;;;26.23;22.02;;;11.10;98.00;11.20;99669.00;;;;344152;28;84141;-87
2021/03/08 00:41:53;;;;;;;24.30;20.98;;;11.10;98.00;11.30;99668.00;;;;348034;27;85354;-86
2021/03/08 00:42:06;;;;;;;25.52;20.77;;;11.10;97.90;11.30;99670.00;;;;345893;28;85017;-86
2021/03/08 00:42:17;;;;;;;24.27;20.83;;;11.10;97.90;11.30;99670.00;;;;346011;28;87264;-88
2021/03/08 00:42:30;;;;;;;22.90;20.13;;;11.10;97.90;11.30;99675.00;;;;341944;28;85640;-87
2021/03/08 00:42:41;;;;;;;24.08;21.17;;;11.20;97.90;11.30;99669.00;;;;344533;28;83366;-86
2021/03/08 00:42:53;;;;;;;26.02;21.90;;;11.20;97.90;11.30;99671.00;;;;344355;28;85670;-86
2021/03/08 00:43:04;;;;;;;27.08;22.55;;;11.20;97.80;11.30;99661.00;;;;345674;28;85452;-87
2021/03/08 00:43:16;;;;;;;26.05;22.25;;;11.20;97.70;11.20;99672.00;;;;344401;28;85716;-86
2021/03/08 00:43:28;;;;;;;25.63;22.92;;;11.20;97.70;11.20;99670.00;;;;343290;28;85184;-86
2021/03/08 00:43:39;;;;;;;25.60;22.88;;;11.10;97.70;11.20;99665.00;;;;343338;28;85458;-87
2021/03/08 00:43:50;;;;;;;25.65;22.77;;;11.20;97.70;11.20;99670.00;;;;343292;28;86879;-87
2021/03/08 00:44:03;;;;;;;24.90;22.02;;;11.10;97.70;11.10;99667.00;;;;343144;28;87344;-87
2021/03/08 00:44:15;;;;;;;25.75;22.60;;;11.10;97.70;11.20;99676.00;;;;344606;28;86968;-86
2021/03/08 00:44:27;;;;;;;26.60;22.70;;;11.10;97.70;11.20;99669.00;;;;343086;28;87635;-85
2021/03/08 00:44:38;;;;;;;25.50;22.65;;;11.20;97.80;11.10;99673.00;;;;343143;28;87243;-87
2021/03/08 00:44:52;;;;;;;24.20;21.58;;;11.10;97.80;11.00;99678.00;;;;344621;28;84465;-86
2021/03/08 00:45:13;;;;;;;25.10;21.38;;;11.10;97.80;11.00;99672.00;;;;344439;28;88329;-87
2021/03/08 00:45:26;;;;;;;26.45;22.20;;;11.10;97.80;11.20;99669.00;;;;343233;28;87863;-87
2021/03/08 00:45:41;;;;;;;25.30;22.55;;;11.20;97.90;11.20;99665.00;;;;344781;28;85158;-87
2021/03/08 00:45:53;;;;;;;24.83;22.20;;;11.20;98.00;11.10;99674.00;;;;344491;28;87830;-87
2021/03/08 00:46:04;;;;;;;25.15;22.45;;;11.10;97.90;11.10;99680.00;;;;345836;28;87894;-87
2021/03/08 00:46:16;;;;;;;26.23;23.10;;;11.10;97.80;11.10;99672.00;;;;342014;28;88064;-88
2021/03/08 00:46:27;;;;;;;26.17;22.80;;;11.10;97.80;11.20;99672.00;;;;346208;28;85619;-88
2021/03/08 00:46:39;;;;;;;25.98;22.83;;;11.10;97.80;11.20;99668.00;;;;347354;28;87772;-88
2021/03/08 00:46:51;;;;;;;26.17;22.65;;;11.10;97.90;11.20;99672.00;;;;344739;28;87213;-87
2021/03/08 00:47:04;;;;;;;26.50;22.50;;;11.10;97.90;11.30;99662.00;;;;345919;28;87741;-88
2021/03/08 00:47:16;;;;;;;26.40;21.35;;;11.10;98.00;11.20;99670.00;;;;343291;28;85738;-88
2021/03/08 00:47:29;;;;;;;26.27;21.38;;;11.20;98.00;11.20;99667.00;;;;343468;28;87932;-88
2021/03/08 00:47:42;;;;;;;24.10;21.27;;;11.10;97.90;11.20;99661.00;;;;342562;28;84117;-85
2021/03/08 00:48:07;;;;;;;24.40;21.77;;;11.10;97.80;11.00;99668.00;;;;346174;28;86417;-88
2021/03/08 00:48:19;;;;;;;24.23;21.60;;;11.10;97.90;11.20;99665.00;;;;343297;28;86404;-88
2021/03/08 00:48:34;;;;;;;24.95;21.58;;;11.20;98.00;11.30;99671.00;;;;343304;28;86765;-88
2021/03/08 00:49:00;;;;;;;23.80;20.45;;;11.20;98.00;11.40;99671.00;;;;343183;28;85623;-87
2021/03/08 00:49:12;;;;;;;25.90;21.58;;;11.20;98.00;11.30;99665.00;;;;343036;28;88370;-86
2021/03/08 00:49:38;;;;;;;24.23;20.67;;;11.20;98.20;11.20;99665.00;;;;344754;28;85854;-86
2021/03/08 00:49:50;;;;;;;24.88;21.02;;;11.20;97.90;11.20;99669.00;;;;344714;28;88345;-85
2021/03/08 00:50:05;;;;;;;23.75;21.17;;;11.20;97.90;11.30;99666.00;;;;344778;28;87118;-86
2021/03/08 00:50:27;;;;;;;24.08;21.58;;;11.20;98.00;11.20;99671.00;;;;344947;28;85305;-85
2021/03/08 00:50:39;;;;;;;25.23;21.45;;;11.20;97.90;11.20;99671.00;;;;342931;28;88231;-86
2021/03/08 00:50:50;;;;;;;24.85;21.20;;;11.20;97.80;11.20;99673.00;;;;343266;28;87776;-86
2021/03/08 00:51:03;;;;;;;24.25;21.50;;;11.20;97.80;11.10;99668.00;;;;344660;28;88057;-86
2021/03/08 00:51:14;;;;;;;24.63;20.98;;;11.20;97.80;11.10;99669.00;;;;343283;28;84242;-86
2021/03/08 00:51:33;;;;;;;25.02;22.23;;;11.10;97.80;11.00;99673.00;;;;346112;28;86001;-86
2021/03/08 00:51:46;;;;;;;24.45;21.88;;;11.20;97.80;11.20;99669.00;;;;346179;28;85673;-86
2021/03/08 00:51:57;;;;;;;23.33;20.92;;;11.20;97.90;11.20;99664.00;;;;343461;28;83626;-88
2021/03/08 00:52:09;;;;;;;23.20;20.33;;;11.20;97.90;11.20;99667.00;;;;345726;28;84369;-86
2021/03/08 00:52:24;;;;;;;24.58;20.70;;;11.20;97.90;11.20;99669.00;;;;344739;28;84397;-87
2021/03/08 00:52:35;;;;;;;23.08;20.13;;;11.20;97.90;11.20;99666.00;;;;344667;28;86694;-87
2021/03/08 00:52:48;;;;;;;24.08;20.55;;;11.20;97.90;11.20;99672.00;;;;344885;28;87918;-87
2021/03/08 00:52:59;;;;;;;25.17;21.70;;;11.20;97.90;11.20;99669.00;;;;347130;28;86275;-88
2021/03/08 00:53:11;;;;;;;24.88;21.95;;;11.20;98.00;11.10;99669.00;;;;347586;28;83777;-87
2021/03/08 00:53:22;;;;;;;24.75;22.17;;;11.20;98.00;11.10;99661.00;;;;346147;28;88160;-86
2021/03/08 00:53:33;;;;;;;25.77;22.70;;;11.20;97.90;11.10;99661.00;;;;345788;28;84680;-87
2021/03/08 00:53:45;;;;;;;26.73;21.90;;;11.10;97.90;11.10;99666.00;;;;344508;28;87886;-87
2021/03/08 00:53:57;;;;;;;27.42;21.25;;;11.20;97.90;10.90;99663.00;;;;344754;28;84762;-87
2021/03/08 00:54:09;;;;;;;25.50;21.10;;;11.10;97.90;10.90;99656.00;;;;343140;28;83366;-86
2021/03/08 00:54:20;;;;;;;23.48;20.83;;;11.20;97.90;10.90;99657.00;;;;344789;28;87279;-87
2021/03/08 00:54:33;;;;;;;24.73;20.98;;;11.20;97.90;10.80;99659.00;;;;344405;28;88336;-87
2021/03/08 00:54:44;;;;;;;24.80;20.98;;;11.10;97.80;10.90;99659.00;;;;346255;28;83651;-87
2021/03/08 00:54:56;;;;;;;25.25;21.30;;;11.10;98.00;10.80;99658.00;;;;343300;28;87564;-87
2021/03/08 00:55:10;;;;;;;25.02;22.13;;;11.10;97.70;10.70;99661.00;;;;344650;28;87730;-88
2021/03/08 00:55:23;;;;;;;25.40;21.85;;;11.10;97.80;10.70;99665.00;;;;344597;28;88185;-87